createdAt,value
2019-02-20T00:00:10.225Z,17.90
2019-02-20T00:02:43.126Z,17.40
2019-02-20T00:05:14.405Z,15.77
2019-02-20T00:07:44.374Z,17.20
2019-02-20T00:10:14.458Z,17.00
2019-02-20T00:12:47.234Z,16.13
2019-02-20T00:15:17.224Z,15.03
2019-02-20T00:17:48.844Z,15.87
2019-02-20T00:20:18.845Z,16.37
2019-02-20T00:22:50.770Z,15.33
2019-02-20T00:25:21.886Z,16.50
2019-02-20T00:27:51.926Z,15.77
2019-02-20T00:30:26.342Z,17.77
2019-02-20T00:32:56.417Z,18.67
2019-02-20T00:35:27.656Z,18.33
2019-02-20T00:37:57.737Z,20.03
2019-02-20T00:40:27.716Z,21.30
2019-02-20T00:42:58.927Z,18.00
2019-02-20T00:45:58.243Z,20.47
2019-02-20T00:48:54.885Z,19.50
2019-02-20T00:51:51.728Z,18.53
2019-02-20T00:54:23.628Z,19.03
2019-02-20T00:56:53.716Z,20.60
2019-02-20T00:59:23.843Z,17.53
2019-02-20T01:01:55.115Z,18.03
2019-02-20T01:04:25.227Z,18.87
2019-02-20T01:06:55.377Z,17.60
2019-02-20T01:09:25.454Z,17.30
2019-02-20T01:11:55.695Z,17.70
2019-02-20T01:14:28.548Z,17.93
2019-02-20T01:16:59.851Z,19.80
2019-02-20T01:19:29.855Z,17.70
2019-02-20T01:21:59.927Z,19.00
2019-02-20T01:24:29.995Z,16.83
2019-02-20T01:27:00.028Z,19.07
2019-02-20T01:29:30.245Z,19.60
2019-02-20T01:32:01.722Z,18.67
2019-02-20T01:34:31.747Z,21.20
2019-02-20T01:37:05.539Z,21.40
2019-02-20T01:39:35.533Z,20.47
2019-02-20T01:42:05.585Z,20.10
2019-02-20T01:44:37.493Z,19.63
2019-02-20T01:47:07.625Z,19.03
2019-02-20T01:49:39.720Z,21.80
2019-02-20T01:52:09.694Z,18.07
2019-02-20T01:54:39.701Z,19.60
2019-02-20T01:57:11.278Z,18.20
2019-02-20T01:59:41.325Z,20.83
2019-02-20T02:02:11.475Z,18.47
2019-02-20T02:04:42.736Z,18.43
2019-02-20T02:07:12.878Z,16.93
2019-02-20T02:09:44.731Z,19.10
2019-02-20T02:12:14.729Z,19.50
2019-02-20T02:14:48.360Z,19.87
2019-02-20T02:17:18.480Z,20.00
2019-02-20T02:19:48.478Z,21.20
2019-02-20T02:22:18.550Z,21.50
2019-02-20T02:24:48.659Z,20.43
2019-02-20T02:27:18.718Z,19.27
2019-02-20T02:29:51.854Z,17.90
2019-02-20T02:32:23.520Z,18.60
2019-02-20T02:34:53.620Z,17.80
2019-02-20T02:37:23.615Z,17.57
2019-02-20T02:39:54.896Z,17.90
2019-02-20T02:42:26.189Z,17.40
2019-02-20T02:44:56.326Z,21.30
2019-02-20T02:47:26.342Z,18.07
2019-02-20T02:49:56.424Z,17.20
2019-02-20T02:52:30.191Z,17.20
2019-02-20T02:55:02.709Z,16.93
2019-02-20T02:57:32.801Z,18.27
2019-02-20T03:00:02.888Z,17.23
2019-02-20T03:02:32.979Z,19.23
2019-02-20T03:05:04.921Z,17.10
2019-02-20T03:07:34.981Z,18.47
2019-02-20T03:10:07.893Z,21.20
2019-02-20T03:12:39.551Z,20.97
2019-02-20T03:15:12.720Z,19.83
2019-02-20T03:17:42.784Z,21.57
2019-02-20T03:20:14.099Z,19.40
2019-02-20T03:22:44.228Z,21.03
2019-02-20T03:25:15.508Z,21.53
2019-02-20T03:27:45.574Z,19.70
2019-02-20T03:30:15.624Z,21.20
2019-02-20T03:32:45.914Z,21.77
2019-02-20T03:35:16.000Z,22.30
2019-02-20T03:37:48.125Z,21.67
2019-02-20T03:40:17.848Z,22.63
2019-02-20T03:42:49.661Z,20.30
2019-02-20T03:45:19.770Z,20.70
2019-02-20T03:47:53.959Z,22.87
2019-02-20T03:50:25.160Z,25.03
2019-02-20T03:52:56.841Z,47.43
2019-02-20T03:55:26.860Z,45.80
2019-02-20T03:57:56.848Z,46.60
2019-02-20T04:00:29.925Z,25.90
2019-02-20T04:03:00.152Z,27.00
2019-02-20T04:05:30.221Z,25.27
2019-02-20T04:08:02.337Z,27.60
2019-02-20T04:10:32.345Z,28.00
2019-02-20T04:13:06.485Z,28.00
2019-02-20T04:15:38.617Z,24.87
2019-02-20T04:18:11.197Z,25.83
2019-02-20T04:20:42.587Z,23.33
2019-02-20T04:23:14.607Z,22.90
2019-02-20T04:25:44.383Z,22.60
2019-02-20T04:28:15.493Z,22.17
2019-02-20T04:30:45.633Z,21.83
2019-02-20T04:33:16.922Z,22.80
2019-02-20T04:35:47.059Z,21.63
2019-02-20T04:38:17.048Z,24.57
2019-02-20T04:40:51.260Z,22.87
2019-02-20T04:43:21.340Z,21.87
2019-02-20T04:48:15.159Z,19.70
2019-02-20T04:50:45.150Z,21.00
2019-02-20T04:53:15.320Z,24.30
2019-02-20T04:55:48.244Z,24.77
2019-02-20T04:58:21.508Z,23.90
2019-02-20T05:00:51.581Z,24.77
2019-02-20T05:03:23.247Z,25.90
2019-02-20T05:05:53.641Z,24.00
2019-02-20T05:08:24.848Z,22.80
2019-02-20T05:10:57.882Z,24.33
2019-02-20T05:13:27.973Z,26.37
2019-02-20T05:15:59.090Z,28.77
2019-02-20T05:18:29.161Z,26.03
2019-02-20T05:21:00.812Z,28.03
2019-02-20T05:23:30.878Z,25.33
2019-02-20T05:26:00.876Z,25.43
2019-02-20T05:28:34.708Z,25.93
2019-02-20T05:31:06.542Z,25.60
2019-02-20T05:33:36.834Z,26.50
2019-02-20T05:36:06.914Z,25.83
2019-02-20T05:38:37.649Z,23.93
2019-02-20T05:41:09.295Z,23.90
2019-02-20T05:43:39.404Z,26.50
2019-02-20T05:46:11.384Z,25.87
2019-02-20T05:48:42.574Z,26.37
2019-02-20T05:51:13.875Z,27.17
2019-02-20T05:53:48.086Z,26.80
2019-02-20T05:56:18.190Z,26.03
2019-02-20T05:58:48.318Z,23.83
2019-02-20T06:01:21.325Z,25.53
2019-02-20T06:03:52.625Z,29.53
2019-02-20T06:06:23.885Z,35.87
2019-02-20T06:08:54.301Z,34.27
2019-02-20T06:11:26.749Z,28.20
2019-02-20T06:13:56.394Z,27.57
2019-02-20T06:16:29.413Z,26.30
2019-02-20T06:19:04.103Z,27.63
2019-02-20T06:21:35.764Z,23.97
2019-02-20T06:24:07.468Z,26.80
2019-02-20T06:26:37.545Z,25.80
2019-02-20T06:29:10.858Z,27.40
2019-02-20T06:31:41.005Z,26.20
2019-02-20T06:34:11.155Z,28.37
2019-02-20T06:36:41.282Z,25.97
2019-02-20T06:39:15.664Z,29.30
2019-02-20T06:41:45.678Z,29.27
2019-02-20T06:44:17.319Z,25.93
2019-02-20T06:46:47.419Z,27.70
2019-02-20T06:49:17.518Z,28.53
2019-02-20T06:51:48.951Z,27.13
2019-02-20T06:54:19.058Z,27.53
2019-02-20T06:56:52.148Z,27.13
2019-02-20T06:59:24.301Z,28.00
2019-02-20T07:02:00.643Z,29.00
2019-02-20T07:04:33.377Z,32.63
2019-02-20T07:07:18.157Z,29.37
2019-02-20T07:10:32.297Z,27.17
2019-02-20T07:13:41.530Z,25.03
2019-02-20T07:16:58.866Z,23.00
2019-02-20T07:20:01.366Z,24.73
2019-02-20T07:23:25.204Z,24.90
2019-02-20T07:26:31.239Z,33.07
2019-02-20T07:29:25.125Z,27.03
2019-02-20T07:31:56.326Z,36.17
2019-02-20T07:34:26.432Z,35.13
2019-02-20T07:36:58.094Z,39.40
2019-02-20T07:39:28.104Z,36.90
2019-02-20T07:41:59.396Z,30.47
2019-02-20T07:44:32.267Z,27.67
2019-02-20T07:47:06.364Z,26.00
2019-02-20T07:49:38.205Z,27.23
2019-02-20T07:52:10.927Z,25.87
2019-02-20T07:54:44.667Z,24.07
2019-02-20T07:57:16.313Z,20.60
2019-02-20T07:59:46.326Z,23.30
2019-02-20T08:02:16.351Z,24.27
2019-02-20T08:04:46.426Z,21.80
2019-02-20T08:07:16.485Z,23.23
2019-02-20T08:09:52.163Z,22.40
2019-02-20T08:12:22.338Z,26.83
2019-02-20T08:14:53.723Z,22.93
2019-02-20T08:17:24.105Z,24.67
2019-02-20T08:19:54.179Z,24.13
2019-02-20T08:22:24.173Z,23.40
2019-02-20T08:24:55.713Z,24.23
2019-02-20T08:27:25.787Z,23.37
2019-02-20T08:29:58.318Z,21.90
2019-02-20T08:32:28.869Z,22.93
2019-02-20T08:34:58.937Z,22.20
2019-02-20T08:37:29.109Z,24.10
2019-02-20T08:40:04.921Z,21.33
2019-02-20T08:42:35.028Z,22.80
2019-02-20T08:45:08.539Z,23.07
2019-02-20T08:47:39.004Z,22.83
2019-02-20T08:50:13.989Z,22.93
2019-02-20T08:52:47.075Z,19.87
2019-02-20T08:55:31.555Z,22.40
2019-02-20T08:57:57.044Z,21.17
2019-02-20T09:00:27.165Z,25.00
2019-02-20T09:02:57.251Z,22.00
2019-02-20T09:05:27.363Z,21.87
2019-02-20T09:07:57.505Z,24.10
2019-02-20T09:10:27.615Z,23.53
2019-02-20T09:12:57.691Z,22.47
2019-02-20T09:15:27.773Z,21.77
2019-02-20T09:17:57.794Z,21.17
2019-02-20T09:20:27.867Z,21.53
2019-02-20T09:22:57.989Z,22.70
2019-02-20T09:25:28.160Z,20.77
2019-02-20T09:27:58.282Z,21.77
2019-02-20T09:30:29.871Z,20.97
2019-02-20T09:33:00.304Z,22.20
2019-02-20T09:35:30.370Z,22.43
2019-02-20T09:38:00.456Z,21.60
2019-02-20T09:40:30.554Z,23.20
2019-02-20T09:43:00.662Z,22.30
2019-02-20T09:45:30.748Z,21.60
2019-02-20T09:48:00.905Z,21.73
2019-02-20T09:50:30.932Z,22.23
2019-02-20T09:53:01.030Z,22.67
2019-02-20T09:55:31.124Z,22.90
2019-02-20T09:58:01.215Z,21.40
2019-02-20T10:00:31.300Z,20.60
2019-02-20T10:03:01.404Z,21.87
2019-02-20T10:05:31.411Z,23.27
2019-02-20T10:08:01.535Z,25.00
2019-02-20T10:10:31.698Z,21.13
2019-02-20T10:13:01.803Z,23.67
2019-02-20T10:15:31.884Z,20.20
2019-02-20T10:18:01.898Z,20.80
2019-02-20T10:20:31.980Z,22.07
2019-02-20T10:23:02.084Z,21.73
2019-02-20T10:25:32.185Z,21.57
2019-02-20T10:28:02.352Z,21.73
2019-02-20T10:30:32.448Z,21.60
2019-02-20T10:33:02.646Z,19.87
2019-02-20T10:35:32.728Z,21.83
2019-02-20T10:38:02.800Z,21.10
2019-02-20T10:40:32.918Z,21.50
2019-02-20T10:43:03.627Z,21.60
2019-02-20T10:45:33.856Z,21.20
2019-02-20T10:48:03.875Z,21.97
2019-02-20T10:50:33.959Z,20.93
2019-02-20T10:53:04.066Z,19.50
2019-02-20T10:55:34.147Z,21.07
2019-02-20T10:58:04.237Z,21.20
2019-02-20T11:00:34.524Z,21.83
2019-02-20T11:03:04.531Z,21.33
2019-02-20T11:05:34.545Z,20.20
2019-02-20T11:08:04.627Z,20.60
2019-02-20T11:10:34.632Z,18.80
2019-02-20T11:13:04.724Z,22.37
2019-02-20T11:15:34.831Z,20.87
2019-02-20T11:18:04.931Z,21.42
2019-02-20T11:20:35.021Z,20.90
2019-02-20T11:23:07.033Z,20.43
2019-02-20T11:25:37.130Z,19.77
2019-02-20T11:28:07.236Z,20.40
2019-02-20T11:30:42.761Z,19.97
2019-02-20T11:33:09.442Z,20.60
2019-02-20T11:35:39.538Z,22.33
2019-02-20T11:38:09.735Z,21.03
2019-02-20T11:40:39.721Z,19.27
2019-02-20T11:43:09.732Z,22.77
2019-02-20T11:45:41.288Z,20.20
2019-02-20T11:48:12.222Z,19.40
2019-02-20T11:50:45.569Z,19.87
2019-02-20T11:53:15.746Z,20.50
2019-02-20T11:55:45.764Z,20.57
2019-02-20T11:58:15.854Z,19.23
2019-02-20T12:00:45.942Z,20.60
2019-02-20T12:03:16.044Z,20.40
2019-02-20T12:05:46.238Z,20.50
2019-02-20T12:08:16.646Z,18.87
2019-02-20T12:10:46.876Z,18.27
2019-02-20T12:13:16.912Z,19.37
2019-02-20T12:15:47.072Z,19.60
2019-02-20T12:18:17.746Z,21.07
2019-02-20T12:20:49.076Z,19.63
2019-02-20T12:23:19.096Z,20.00
2019-02-20T12:25:49.178Z,20.53
2019-02-20T12:28:19.232Z,20.07
2019-02-20T12:30:50.398Z,19.93
2019-02-20T12:33:20.502Z,19.30
2019-02-20T12:35:50.580Z,19.57
2019-02-20T12:38:20.679Z,21.10
2019-02-20T12:40:52.344Z,21.10
2019-02-20T12:43:24.060Z,20.80
2019-02-20T12:45:55.528Z,20.23
2019-02-20T12:48:25.634Z,20.50
2019-02-20T12:50:57.583Z,21.47
2019-02-20T12:53:28.708Z,21.43
2019-02-20T12:55:58.863Z,21.67
2019-02-20T12:58:28.889Z,20.50
2019-02-20T13:01:01.431Z,20.87
2019-02-20T13:03:31.559Z,19.87
2019-02-20T13:06:04.548Z,21.50
2019-02-20T13:08:35.920Z,21.17
2019-02-20T13:11:06.019Z,21.57
2019-02-20T13:13:36.701Z,22.63
2019-02-20T13:16:09.655Z,22.47
2019-02-20T13:18:40.116Z,21.97
2019-02-20T13:21:11.103Z,22.40
2019-02-20T13:23:47.077Z,20.70
2019-02-20T13:26:16.449Z,22.23
2019-02-20T13:28:46.569Z,20.90
2019-02-20T13:31:16.733Z,26.43
2019-02-20T13:33:46.937Z,22.33
2019-02-20T13:36:18.177Z,22.67
2019-02-20T13:38:51.820Z,20.80
2019-02-20T13:41:21.979Z,30.33
2019-02-20T13:43:52.125Z,27.10
2019-02-20T13:46:25.611Z,22.63
2019-02-20T13:48:58.585Z,28.07
2019-02-20T13:51:37.436Z,24.83
2019-02-20T13:54:10.025Z,22.77
2019-02-20T13:56:43.151Z,28.37
2019-02-20T13:59:14.566Z,23.07
2019-02-20T14:01:48.812Z,25.70
2019-02-20T14:04:19.199Z,24.97
2019-02-20T14:06:49.371Z,23.33
2019-02-20T14:09:19.594Z,23.53
2019-02-20T14:11:49.761Z,23.73
2019-02-20T14:14:19.927Z,21.10
2019-02-20T14:16:51.682Z,22.90
2019-02-20T14:19:21.781Z,22.73
2019-02-20T14:21:51.972Z,23.07
2019-02-20T14:24:22.132Z,22.47
2019-02-20T14:26:55.921Z,22.50
2019-02-20T14:29:25.740Z,21.47
2019-02-20T14:31:56.235Z,22.00
2019-02-20T14:34:27.524Z,22.33
2019-02-20T14:37:02.906Z,22.30
2019-02-20T14:39:32.285Z,21.90
2019-02-20T14:42:04.338Z,24.27
2019-02-20T14:44:35.933Z,21.80
2019-02-20T14:47:06.120Z,21.27
2019-02-20T14:49:39.092Z,23.23
2019-02-20T14:52:09.256Z,22.40
2019-02-20T14:54:41.217Z,22.67
2019-02-20T14:57:19.442Z,23.03
2019-02-20T14:59:44.224Z,22.60
2019-02-20T15:02:14.467Z,26.00
2019-02-20T15:04:46.194Z,26.47
2019-02-20T15:07:16.360Z,24.30
2019-02-20T15:09:46.567Z,22.97
2019-02-20T15:12:16.927Z,24.27
2019-02-20T15:14:47.695Z,22.37
2019-02-20T15:17:17.895Z,23.97
2019-02-20T15:19:48.079Z,24.63
2019-02-20T15:22:18.343Z,21.37
2019-02-20T15:24:48.497Z,22.27
2019-02-20T15:27:19.244Z,22.47
2019-02-20T15:29:50.429Z,22.93
2019-02-20T15:32:20.528Z,25.40
2019-02-20T15:34:50.740Z,22.10
2019-02-20T15:37:22.104Z,22.40
2019-02-20T15:39:52.613Z,22.00
2019-02-20T15:42:22.827Z,20.67
2019-02-20T15:44:53.041Z,20.57
2019-02-20T15:47:23.291Z,22.60
2019-02-20T15:49:53.497Z,23.93
2019-02-20T15:52:23.663Z,22.10
2019-02-20T15:54:54.635Z,23.97
2019-02-20T15:57:24.830Z,23.47
2019-02-20T15:59:55.070Z,21.97
2019-02-20T16:02:25.264Z,23.73
2019-02-20T16:04:55.480Z,21.20
2019-02-20T16:07:25.699Z,22.57
2019-02-20T16:09:55.979Z,22.97
2019-02-20T16:12:26.245Z,21.73
2019-02-20T16:14:56.419Z,22.67
2019-02-20T16:17:26.585Z,21.20
2019-02-20T16:19:56.799Z,23.27
2019-02-20T16:22:28.505Z,22.60
2019-02-20T16:24:58.651Z,24.20
2019-02-20T16:27:28.920Z,21.60
2019-02-20T16:29:59.135Z,23.63
2019-02-20T16:32:29.351Z,23.70
2019-02-20T16:34:59.590Z,23.40
2019-02-20T16:37:30.194Z,23.67
2019-02-20T16:40:01.370Z,24.80
2019-02-20T16:42:31.562Z,23.80
2019-02-20T16:45:01.843Z,24.03
2019-02-20T16:47:32.281Z,22.90
2019-02-20T16:50:02.510Z,23.63
2019-02-20T16:52:33.130Z,23.67
2019-02-20T16:55:03.342Z,24.40
2019-02-20T16:57:33.562Z,23.10
2019-02-20T17:00:03.934Z,24.50
2019-02-20T17:02:35.155Z,21.77
2019-02-20T17:05:13.111Z,26.40
2019-02-20T17:07:39.280Z,24.70
2019-02-20T17:10:10.211Z,23.20
2019-02-20T17:12:44.026Z,24.20
2019-02-20T17:15:23.295Z,22.40
2019-02-20T17:17:54.080Z,24.13
2019-02-20T17:20:26.363Z,25.10
2019-02-20T17:22:56.793Z,24.37
2019-02-20T17:25:27.379Z,26.13
2019-02-20T17:28:05.476Z,24.87
2019-02-20T17:30:32.190Z,23.13
2019-02-20T17:33:04.472Z,25.50
2019-02-20T17:35:37.309Z,23.60
2019-02-20T17:38:07.849Z,26.80
2019-02-20T17:40:54.332Z,26.70
2019-02-20T17:43:26.436Z,31.33
2019-02-20T17:45:56.346Z,34.30
2019-02-20T17:48:28.474Z,33.37
2019-02-20T17:50:58.378Z,31.83
2019-02-20T17:53:28.918Z,29.50
2019-02-20T17:55:59.174Z,29.93
2019-02-20T17:58:29.642Z,30.50
2019-02-20T18:01:01.071Z,28.83
2019-02-20T18:03:31.296Z,29.60
2019-02-20T18:06:01.528Z,29.80
2019-02-20T18:08:31.748Z,31.97
2019-02-20T18:11:02.769Z,31.43
2019-02-20T18:13:33.003Z,33.50
2019-02-20T18:16:03.288Z,36.50
2019-02-20T18:18:33.539Z,36.07
2019-02-20T18:21:04.137Z,32.10
2019-02-20T18:23:35.876Z,30.53
2019-02-20T18:26:06.251Z,29.27
2019-02-20T18:28:36.561Z,29.13
2019-02-20T18:31:06.837Z,30.50
2019-02-20T18:33:42.904Z,27.60
2019-02-20T18:36:13.145Z,28.87
2019-02-20T18:38:45.173Z,27.23
2019-02-20T18:41:16.649Z,27.40
2019-02-20T18:43:50.732Z,29.23
2019-02-20T18:46:24.557Z,29.57
2019-02-20T18:48:54.844Z,29.07
2019-02-20T18:51:27.633Z,30.33
2019-02-20T18:53:57.363Z,30.10
2019-02-20T18:56:27.725Z,30.70
2019-02-20T18:58:58.864Z,28.80
2019-02-20T19:01:29.340Z,29.13
2019-02-20T19:04:01.192Z,31.40
2019-02-20T19:06:32.839Z,31.33
2019-02-20T19:09:26.955Z,30.30
2019-02-20T19:12:43.022Z,31.33
2019-02-20T19:16:01.890Z,34.53
2019-02-20T19:19:22.413Z,34.83
2019-02-20T19:22:43.088Z,32.13
2019-02-20T19:25:48.805Z,34.00
2019-02-20T19:28:49.022Z,35.80
2019-02-20T19:32:02.648Z,51.60
2019-02-20T19:35:07.125Z,41.33
2019-02-20T19:38:14.341Z,36.60
2019-02-20T19:41:23.325Z,32.20
2019-02-20T19:44:10.972Z,32.07
2019-02-20T19:47:19.831Z,35.13
2019-02-20T19:50:45.038Z,34.43
2019-02-20T19:53:43.818Z,34.60
2019-02-20T19:57:04.162Z,36.10
2019-02-20T19:59:52.750Z,36.93
2019-02-20T20:02:53.048Z,37.30
2019-02-20T20:06:06.242Z,39.40
2019-02-20T20:09:24.265Z,39.47
2019-02-20T20:12:41.314Z,39.63
2019-02-20T20:15:47.326Z,38.83
2019-02-20T20:19:03.812Z,53.67
2019-02-20T20:22:11.004Z,47.77
2019-02-20T20:25:25.940Z,50.07
2019-02-20T20:28:34.920Z,55.80
2019-02-20T20:31:40.493Z,50.97
2019-02-20T20:34:50.861Z,45.00
2019-02-20T20:37:56.126Z,43.50
2019-02-20T20:40:59.463Z,44.07
2019-02-20T20:44:06.588Z,46.90
2019-02-20T20:47:08.137Z,42.17
2019-02-20T20:49:59.502Z,45.50
2019-02-20T20:52:46.719Z,44.37
2019-02-20T20:55:46.824Z,39.87
2019-02-20T20:58:57.157Z,40.53
2019-02-20T21:01:59.797Z,39.63
2019-02-20T21:05:26.455Z,38.27
2019-02-20T21:08:26.327Z,36.80
2019-02-20T21:12:05.739Z,36.43
2019-02-20T21:14:55.690Z,37.77
2019-02-20T21:18:05.564Z,35.33
2019-02-20T21:20:59.612Z,38.47
2019-02-20T21:24:12.413Z,46.77
2019-02-20T21:27:06.402Z,42.90
2019-02-20T21:30:14.138Z,40.53
2019-02-20T21:33:17.680Z,39.20
2019-02-20T21:36:16.352Z,38.77
2019-02-20T21:39:28.831Z,40.13
2019-02-20T21:42:19.642Z,40.83
2019-02-20T21:45:40.648Z,40.13
2019-02-20T21:48:43.873Z,41.00
2019-02-20T21:51:52.387Z,44.30
2019-02-20T21:55:02.082Z,40.50
2019-02-20T21:58:07.658Z,40.43
2019-02-20T22:00:51.946Z,38.47
2019-02-20T22:03:56.156Z,38.60
2019-02-20T22:07:02.979Z,38.30
2019-02-20T22:10:02.045Z,40.30
2019-02-20T22:13:03.289Z,39.80
2019-02-20T22:16:00.755Z,40.37
2019-02-20T22:19:01.721Z,41.73
2019-02-20T22:22:24.963Z,37.43
2019-02-20T22:25:29.822Z,35.07
2019-02-20T22:28:40.113Z,34.37
2019-02-20T22:31:49.374Z,36.40
2019-02-20T22:34:36.861Z,38.47
2019-02-20T22:37:45.141Z,38.73
2019-02-20T22:40:41.514Z,38.10
2019-02-20T22:44:14.933Z,38.50
2019-02-20T22:47:06.795Z,40.20
2019-02-20T22:50:06.950Z,40.67
2019-02-20T22:53:00.724Z,41.37
2019-02-20T22:56:01.402Z,41.87
2019-02-20T22:59:08.453Z,40.80
2019-02-20T23:02:03.589Z,39.17
2019-02-20T23:04:59.117Z,37.83
2019-02-20T23:08:02.006Z,35.30
2019-02-20T23:11:11.411Z,38.03
2019-02-20T23:13:57.156Z,33.70
2019-02-20T23:16:31.582Z,33.07
2019-02-20T23:19:00.004Z,34.07
2019-02-20T23:21:30.032Z,36.47
2019-02-20T23:24:01.742Z,33.63
2019-02-20T23:26:31.807Z,32.07
2019-02-20T23:29:01.825Z,34.87
2019-02-20T23:31:33.478Z,34.47
2019-02-20T23:34:07.796Z,35.30
2019-02-20T23:36:38.162Z,33.83
2019-02-20T23:39:12.226Z,31.33
2019-02-20T23:41:43.924Z,33.97
2019-02-20T23:44:13.957Z,30.37
2019-02-20T23:46:44.016Z,30.37
2019-02-20T23:49:15.876Z,30.67
2019-02-20T23:51:45.950Z,29.80
2019-02-20T23:54:16.077Z,31.53
2019-02-20T23:56:46.074Z,31.50
2019-02-20T23:59:16.927Z,30.83
